Aviation Digital Data Service (ADDS)

Output produced by METARs form (0002 UTC 27 November 2014)
found at http://www.aviationweather.gov/adds/metars/
 
KIPT 262354Z 26007KT 9SM -SN FEW018 SCT025 OVC043 01/M01 A2998 RMK AO2 SLP156 P0000 60021 T00061011 10006 20006 58005
KIPT 262310Z 26007KT 5SM -SN BR SCT022 OVC032 01/M01 A2999 RMK AO2 P0000 T00061011
KIPT 262254Z 26007KT 5SM -SN BR BKN021 OVC036 01/M01 A2999 RMK AO2 SLP162 P0001 T00061011
KIPT 262229Z 26008KT 3SM -SN BR SCT006 BKN016 OVC023 01/M01 A2999 RMK AO2 P0001 T00061011
KIPT 262215Z 26008KT 2SM -SN BR BKN006 OVC011 01/M01 A2999 RMK AO2 P0001 T00061011
KIPT 262154Z 27006KT 1 1/2SM -SN BR BKN006 OVC011 01/M01 A2999 RMK AO2 SLP161 P0007 T00061011
KIPT 262142Z 25007KT 1SM -SN BR SCT004 BKN010 OVC015 01/M01 A2999 RMK AO2 P0006 T00061011
KIPT 262118Z 25004KT 1/2SM SN FG BKN004 OVC008 01/M01 A2999 RMK AO2 P0003 T00061006
KIPT 262054Z 27006KT 3/4SM -SN BR BKN007 OVC014 01/M01 A2999 RMK AO2 SLP163 P0005 60013 T00061011 55002
KIPT 262029Z 26008KT 3/4SM -SN BR BKN007 OVC014 01/M01 A2999 RMK AO2 P0002 T00061011
KIPT 262026Z 26008KT 1SM -SN BR BKN007 OVC014 01/M01 A2999 RMK AO2 P0002 T00061011
KIPT 262010Z 25007KT 3/4SM -SN BR BKN007 OVC014 01/M01 A2997 RMK AO2 P0001 T00061011
KIPT 261954Z 24007KT 1SM -SN BR BKN007 OVC014 01/M01 A2999 RMK AO2 SLP162 P0004 T00061011
KIPT 261925Z 25006KT 1SM -SN BR BKN007 OVC018 01/M01 A2999 RMK AO2 P0002 T00061011
KIPT 261918Z 25006KT 1 1/4SM -SN BR SCT007 SCT010 OVC015 01/M01 A2999 RMK AO2 P0002 T00061011
KIPT 261856Z 26003KT 1SM -SN BR OVC005 01/M01 A3000 RMK AO2 P0001 T00061006
KIPT 261854Z 25004KT 3/4SM -SN BR BKN004 OVC010 01/M01 A3000 RMK AO2 PRESFR SLP164 P0004 T00061006
KIPT 261851Z 26004KT 3/4SM -SN BR BKN004 OVC010 01/M01 A3000 RMK AO2 PRESFR P0004
KIPT 261844Z 26004KT 1SM -SN BR BKN004 OVC010 01/M01 A3002 RMK AO2 P0004 T00061006
KIPT 261836Z 25005KT 3/4SM -SN BR BKN004 OVC010 01/M01 A3003 RMK AO2 P0003 T00061006
KIPT 261806Z 26004KT 1SM -SN BR BKN004 OVC010 01/M01 A3005 RMK AO2 P0001 T00061006
KIPT 261733Z 25003KT 3/4SM -SN BR SCT005 OVC010 01/M01 A3005 RMK AO2 P0003 T00061006
KIPT 261702Z 28003KT 1/2SM SN FG SCT003 OVC007 01/M01 A3008 RMK AO2 P0001 T00061006
KIPT 261654Z 29003KT 1/4SM +SN FG VV006 01/M01 A3008 RMK AO2 PRESFR SLP192 P0011 T00061011
KIPT 261554Z 00000KT 1/4SM +SN FG VV008 01/00 A3013 RMK AO2 SLP210 P0010 T00060000
KIPT 261534Z 00000KT 1/4SM +SN FG VV008 01/M01 A3015 RMK AO2 P0006 T00061006
KIPT 261524Z 25003KT 1/2SM SN FG VV008 01/M01 A3016 RMK AO2 P0004 T00061006
KIPT 261457Z 00000KT 3/4SM -SN BR VV014 01/M01 A3012 RMK AO2 P0001 T00111011
KIPT 261454Z 00000KT 1 1/2SM -SN BR OVC015 01/M01 A3012 RMK AO2 SNB16 SLP203 P0001 60001 T00111011 58006
KIPT 261428Z 04003KT 1 1/2SM -SN OVC021 02/M02 A3012 RMK AO2 SNB16 P0000 T00221022
KIPT 261416Z 05004KT 2SM -SN OVC029 03/M03 A3012 RMK AO2 SNB16 P0000 T00281028
KIPT 261354Z 00000KT 10SM BKN035 OVC060 02/M02 A3013 RMK AO2 SLP208 T00221017
KIPT 261254Z 08003KT 10SM OVC085 02/M01 A3013 RMK AO2 SLP208 T00171011
KIPT 261154Z 00000KT 10SM OVC100 02/M02 A3013 RMK AO2 SLP208 T00171017 10017 20000 56025
KIPT 261054Z AUTO 00000KT 10SM BKN110 01/M02 A3015 RMK AO2 SLP215 T00061022
KIPT 260954Z AUTO 00000KT 10SM CLR 01/M02 A3017 RMK AO2 SLP219 T00111022
KIPT 260854Z AUTO 30003KT 10SM CLR 01/M02 A3021 RMK AO2 SLP233 T00061022 53006
KIPT 260754Z AUTO 00000KT 10SM CLR 01/M02 A3019 RMK AO2 SLP227 T00061022
KIPT 260654Z AUTO 00000KT 10SM CLR 01/M02 A3020 RMK AO2 SLP231 T00061022
KIPT 260554Z AUTO 00000KT 10SM CLR 00/M03 A3019 RMK AO2 SLP227 T00001028 10050 20000 51014
KIPT 260454Z AUTO 00000KT 10SM CLR 01/M03 A3017 RMK AO2 SLP220 T00061028 401560006
KIPT 260354Z AUTO VRB03KT 10SM CLR 01/M03 A3018 RMK AO2 SLP222 T00061028
KIPT 260254Z 00000KT 10SM CLR 02/M02 A3015 RMK AO2 SLP213 T00171022 53025
KIPT 260154Z 36003KT 10SM CLR 02/M03 A3012 RMK AO2 SLP202 T00221028
KIPT 260054Z 00000KT 10SM CLR 03/M02 A3010 RMK AO2 SLP197 T00331022
KIPT 252354Z 00000KT 10SM CLR 05/M03 A3007 RMK AO2 SLP186 T00501028 10111 20044 53021
KIPT 252254Z 26004KT 10SM CLR 06/M02 A3004 RMK AO2 SLP174 T00561022
KIPT 252154Z 24006KT 10SM CLR 06/M03 A3002 RMK AO2 SLP168 T00611028
KIPT 252054Z 25008KT 10SM CLR 10/M03 A3001 RMK AO2 SLP164 T01001033 53006
KIPT 251954Z 26011KT 10SM CLR 11/M03 A2999 RMK AO2 SLP155 T01111028
KIPT 251854Z 27009KT 10SM CLR 11/M03 A2999 RMK AO2 SLP157 T01061028
KIPT 251754Z 27012G19KT 10SM CLR 11/M03 A2999 RMK AO2 SLP156 T01061028 10106 20056 58003
KIPT 251654Z 27013G20KT 10SM FEW050 11/M02 A3001 RMK AO2 SLP162 T01061022
KIPT 251554Z 24009G24KT 10SM FEW055 09/M02 A3001 RMK AO2 SLP163 T00941022
KIPT 251454Z 23014G19KT 10SM CLR 09/M02 A3000 RMK AO2 SLP158 T00941022 53013
KIPT 251354Z VRB06KT 10SM CLR 08/M02 A2998 RMK AO2 SLP153 T00831017
KIPT 251254Z 31004KT 10SM CLR 06/M02 A2997 RMK AO2 SLP149 T00611017